Time;durP1;ratioP1;P1;durP2;ratioP2;P2;SDS_P1;SDS_P2;PMS_P1;PMS_P2;Temp;Humidity;BMP_temperature;BMP_pressure;BME280_temperature;BME280_humidity;BME280_pressure;Samples;Min_cycle;Max_cycle;Signal;HPM_P1;HPM_P2
2023/03/11 00:01:56;;;;;;;0.38;0.38;;;;;;;;;;5012544;28;20069;-74
2023/03/11 00:04:22;;;;;;;0.40;0.40;;;;;;;;;;5012228;28;20025;-75
2023/03/11 00:06:48;;;;;;;0.40;0.40;;;;;;;;;;5011111;28;20379;-75
2023/03/11 00:09:14;;;;;;;0.40;0.40;;;;;;;;;;5012087;28;20119;-75
2023/03/11 00:11:40;;;;;;;0.40;0.40;;;;;;;;;;5011103;28;20485;-75
2023/03/11 00:14:06;;;;;;;0.47;0.47;;;;;;;;;;5012259;28;20025;-75
2023/03/11 00:16:32;;;;;;;0.50;0.50;;;;;;;;;;5010939;28;20410;-74
2023/03/11 00:18:59;;;;;;;0.40;0.40;;;;;;;;;;5012059;28;20525;-74
2023/03/11 00:21:25;;;;;;;0.40;0.40;;;;;;;;;;5012068;28;20048;-76
2023/03/11 00:23:51;;;;;;;0.40;0.40;;;;;;;;;;5011959;28;20088;-76
2023/03/11 00:26:17;;;;;;;0.47;0.47;;;;;;;;;;5011882;28;20042;-76
2023/03/11 00:28:43;;;;;;;0.40;0.40;;;;;;;;;;5011235;28;20032;-75
2023/03/11 00:31:11;;;;;;;0.40;0.40;;;;;;;;;;5011889;28;20036;-78
2023/03/11 00:33:38;;;;;;;0.50;0.50;;;;;;;;;;5011836;28;20047;-75
2023/03/11 00:36:05;;;;;;;0.40;0.40;;;;;;;;;;5012282;28;20033;-75
2023/03/11 00:38:31;;;;;;;0.43;0.43;;;;;;;;;;5011882;28;20467;-76
2023/03/11 00:41:00;;;;;;;1.05;1.05;;;;;;;;;;5011943;28;20116;-76
2023/03/11 00:43:26;;;;;;;0.40;0.40;;;;;;;;;;5011897;28;20360;-74
2023/03/11 00:45:52;;;;;;;0.40;0.40;;;;;;;;;;5010620;28;20061;-77
2023/03/11 00:48:18;;;;;;;0.50;0.50;;;;;;;;;;5011938;28;20033;-75
2023/03/11 00:50:44;;;;;;;0.40;0.40;;;;;;;;;;5011855;28;20038;-74
2023/03/11 00:53:11;;;;;;;0.50;0.50;;;;;;;;;;5011571;28;20026;-75
2023/03/11 00:55:37;;;;;;;0.30;0.30;;;;;;;;;;5011724;28;20360;-74
2023/03/11 00:58:04;;;;;;;0.47;0.47;;;;;;;;;;5011764;28;20080;-74
2023/03/11 01:00:30;;;;;;;0.40;0.40;;;;;;;;;;5010258;28;20072;-74
2023/03/11 01:02:57;;;;;;;0.47;0.47;;;;;;;;;;5010603;28;20030;-74
2023/03/11 01:05:26;;;;;;;0.40;0.40;;;;;;;;;;5011492;28;20044;-75
2023/03/11 01:07:52;;;;;;;0.50;0.50;;;;;;;;;;5011449;28;20679;-76
2023/03/11 01:10:18;;;;;;;0.50;0.50;;;;;;;;;;5009958;28;20034;-76
2023/03/11 01:12:44;;;;;;;0.40;0.40;;;;;;;;;;5011479;28;20034;-75
2023/03/11 01:15:21;;;;;;;0.50;0.50;;;;;;;;;;5011309;28;20026;-75
2023/03/11 01:17:47;;;;;;;0.50;0.50;;;;;;;;;;5010596;28;20141;-76
2023/03/11 01:20:14;;;;;;;0.57;0.57;;;;;;;;;;4992134;28;20483;-76
2023/03/11 01:22:40;;;;;;;0.40;0.40;;;;;;;;;;4995545;28;20700;-75
2023/03/11 01:25:06;;;;;;;0.40;0.40;;;;;;;;;;4994637;28;20034;-76
2023/03/11 01:27:32;;;;;;;0.40;0.40;;;;;;;;;;4995963;28;20022;-77
2023/03/11 01:29:58;;;;;;;0.40;0.40;;;;;;;;;;4995945;28;20049;-74
2023/03/11 01:32:24;;;;;;;11.05;3.50;;;;;;;;;;4995899;28;20026;-77
2023/03/11 01:34:50;;;;;;;0.60;0.60;;;;;;;;;;4995570;28;20088;-76
2023/03/11 01:37:16;;;;;;;0.30;0.30;;;;;;;;;;5010623;28;20034;-77
2023/03/11 01:39:42;;;;;;;0.50;0.50;;;;;;;;;;5015300;28;20025;-76
2023/03/11 01:42:08;;;;;;;0.40;0.40;;;;;;;;;;5015141;28;20026;-77
2023/03/11 01:44:34;;;;;;;0.50;0.50;;;;;;;;;;5013549;28;20111;-77
2023/03/11 01:47:01;;;;;;;0.40;0.40;;;;;;;;;;5015181;28;20026;-77
2023/03/11 01:49:27;;;;;;;0.38;0.38;;;;;;;;;;5015125;28;20030;-76
2023/03/11 01:51:55;;;;;;;0.45;0.45;;;;;;;;;;5014408;28;20025;-76
2023/03/11 01:54:23;;;;;;;0.50;0.50;;;;;;;;;;5015011;28;20438;-75
2023/03/11 01:56:50;;;;;;;0.40;0.40;;;;;;;;;;5014717;28;20406;-75
2023/03/11 01:59:19;;;;;;;0.70;0.70;;;;;;;;;;5014662;28;20026;-74
2023/03/11 02:02:00;;;;;;;0.50;0.50;;;;;;;;;;5014645;28;20064;-75
2023/03/11 02:04:28;;;;;;;0.40;0.40;;;;;;;;;;5014677;28;20053;-78
2023/03/11 02:06:55;;;;;;;0.40;0.40;;;;;;;;;;5013623;28;20033;-78
2023/03/11 02:09:23;;;;;;;0.40;0.40;;;;;;;;;;5014503;28;20026;-76
2023/03/11 02:11:49;;;;;;;0.40;0.40;;;;;;;;;;5013146;28;20052;-76
2023/03/11 02:14:15;;;;;;;0.50;0.50;;;;;;;;;;5014357;28;20101;-75
2023/03/11 02:16:41;;;;;;;0.40;0.40;;;;;;;;;;5013228;28;20026;-75
2023/03/11 02:19:14;;;;;;;0.50;0.50;;;;;;;;;;5014367;28;20052;-74
2023/03/11 02:21:40;;;;;;;0.50;0.50;;;;;;;;;;5014375;28;20088;-75
2023/03/11 02:24:25;;;;;;;0.50;0.50;;;;;;;;;;5013241;28;20033;-76
2023/03/11 02:27:24;;;;;;;0.50;0.50;;;;;;;;;;5014309;28;20037;-78
2023/03/11 02:29:50;;;;;;;0.40;0.40;;;;;;;;;;5002072;28;20057;-76
2023/03/11 02:32:16;;;;;;;1.55;1.20;;;;;;;;;;5013958;28;20054;-76
2023/03/11 02:34:43;;;;;;;0.50;0.50;;;;;;;;;;5013841;28;20034;-77
2023/03/11 02:37:13;;;;;;;0.30;0.30;;;;;;;;;;5013928;28;20427;-76
2023/03/11 02:39:44;;;;;;;0.43;0.43;;;;;;;;;;5013863;28;20033;-77
2023/03/11 02:42:12;;;;;;;0.40;0.40;;;;;;;;;;5012932;28;20360;-77
2023/03/11 02:44:42;;;;;;;0.47;0.47;;;;;;;;;;5013883;28;20101;-77
2023/03/11 02:47:08;;;;;;;0.40;0.40;;;;;;;;;;5013872;28;20478;-77
2023/03/11 02:49:34;;;;;;;0.57;0.57;;;;;;;;;;5013899;28;20030;-77
2023/03/11 02:52:00;;;;;;;0.50;0.50;;;;;;;;;;5013661;28;20060;-78
2023/03/11 02:54:26;;;;;;;0.50;0.50;;;;;;;;;;5013833;28;20049;-77
2023/03/11 02:56:52;;;;;;;0.40;0.40;;;;;;;;;;5012490;28;20394;-76
2023/03/11 02:59:18;;;;;;;0.40;0.40;;;;;;;;;;5012525;28;20026;-76
2023/03/11 03:01:44;;;;;;;0.50;0.50;;;;;;;;;;5013717;28;20108;-76
2023/03/11 03:04:11;;;;;;;0.50;0.50;;;;;;;;;;5013517;28;20018;-76
2023/03/11 03:06:37;;;;;;;0.50;0.50;;;;;;;;;;5012129;28;20037;-78
2023/03/11 03:09:03;;;;;;;0.40;0.40;;;;;;;;;;5013832;28;20104;-79
2023/03/11 03:11:29;;;;;;;0.50;0.50;;;;;;;;;;5013778;28;20026;-79
2023/03/11 03:13:55;;;;;;;0.47;0.47;;;;;;;;;;5012560;28;20076;-78
2023/03/11 03:16:21;;;;;;;0.43;0.43;;;;;;;;;;5013262;28;20471;-76
2023/03/11 03:18:47;;;;;;;0.30;0.30;;;;;;;;;;5013302;28;20026;-77
2023/03/11 03:21:14;;;;;;;0.43;0.43;;;;;;;;;;5012839;28;20045;-76
2023/03/11 03:23:40;;;;;;;0.50;0.50;;;;;;;;;;5013097;28;20022;-76
2023/03/11 03:26:06;;;;;;;0.40;0.40;;;;;;;;;;5013107;28;20041;-76
2023/03/11 03:28:32;;;;;;;0.40;0.40;;;;;;;;;;5013074;28;20032;-77
2023/03/11 03:31:05;;;;;;;0.50;0.50;;;;;;;;;;5012047;28;20044;-75
2023/03/11 03:33:32;;;;;;;0.50;0.50;;;;;;;;;;5012943;28;20026;-75
2023/03/11 03:35:58;;;;;;;0.50;0.50;;;;;;;;;;5013004;28;20040;-75
2023/03/11 03:38:24;;;;;;;0.40;0.40;;;;;;;;;;5012675;28;20041;-75
2023/03/11 03:40:50;;;;;;;1.02;1.02;;;;;;;;;;5011427;28;20030;-76
2023/03/11 03:43:16;;;;;;;1.17;1.13;;;;;;;;;;5011036;28;20052;-76
2023/03/11 03:45:42;;;;;;;0.40;0.40;;;;;;;;;;5012847;28;20056;-77
2023/03/11 03:48:08;;;;;;;0.50;0.50;;;;;;;;;;5010913;28;20088;-77
2023/03/11 03:50:34;;;;;;;0.40;0.40;;;;;;;;;;5011313;28;20116;-77
2023/03/11 03:53:00;;;;;;;0.40;0.40;;;;;;;;;;5012802;28;20014;-76
2023/03/11 03:55:26;;;;;;;0.40;0.40;;;;;;;;;;5012519;28;20502;-75
2023/03/11 03:57:52;;;;;;;0.50;0.50;;;;;;;;;;5012513;28;20053;-76
2023/03/11 04:00:19;;;;;;;0.50;0.50;;;;;;;;;;5012850;28;20029;-75
2023/03/11 04:02:45;;;;;;;0.40;0.40;;;;;;;;;;5010553;28;20449;-76
2023/03/11 04:05:11;;;;;;;0.40;0.40;;;;;;;;;;5012419;28;20131;-76
2023/03/11 04:07:37;;;;;;;0.47;0.47;;;;;;;;;;5012757;28;20034;-77
2023/03/11 04:10:04;;;;;;;0.40;0.40;;;;;;;;;;5012576;28;20053;-77
2023/03/11 04:12:30;;;;;;;0.70;0.70;;;;;;;;;;5012425;28;20049;-76
2023/03/11 04:14:56;;;;;;;0.40;0.40;;;;;;;;;;5011093;28;20113;-76
2023/03/11 04:17:22;;;;;;;2.58;2.47;;;;;;;;;;5012051;28;20018;-75
2023/03/11 04:19:48;;;;;;;0.40;0.40;;;;;;;;;;5011448;28;20088;-76
2023/03/11 04:22:14;;;;;;;0.40;0.40;;;;;;;;;;5010881;28;20080;-76
2023/03/11 04:24:40;;;;;;;0.40;0.40;;;;;;;;;;5012029;28;20057;-76
2023/03/11 04:27:06;;;;;;;0.40;0.40;;;;;;;;;;5012014;28;20026;-76
2023/03/11 04:29:32;;;;;;;0.98;0.98;;;;;;;;;;5012148;28;20101;-76
2023/03/11 04:31:58;;;;;;;0.45;0.45;;;;;;;;;;5011830;28;20072;-76
2023/03/11 04:34:24;;;;;;;0.40;0.40;;;;;;;;;;5011936;28;20025;-75
2023/03/11 04:36:52;;;;;;;0.50;0.50;;;;;;;;;;5011514;28;20029;-75
2023/03/11 04:39:18;;;;;;;0.40;0.40;;;;;;;;;;5007332;28;20117;-76
2023/03/11 04:41:44;;;;;;;3.50;3.30;;;;;;;;;;4992145;28;20133;-76
2023/03/11 04:44:10;;;;;;;0.55;0.55;;;;;;;;;;4992137;28;20029;-76
2023/03/11 04:46:36;;;;;;;0.50;0.50;;;;;;;;;;4992019;28;20121;-76
2023/03/11 04:49:02;;;;;;;0.40;0.40;;;;;;;;;;4992002;28;20033;-76
2023/03/11 04:51:28;;;;;;;0.40;0.40;;;;;;;;;;4990768;28;20505;-77
2023/03/11 04:53:54;;;;;;;0.50;0.50;;;;;;;;;;4992039;28;20218;-74
2023/03/11 04:56:20;;;;;;;1.27;1.23;;;;;;;;;;5008026;28;20022;-75
2023/03/11 04:58:46;;;;;;;0.40;0.40;;;;;;;;;;5011497;28;20030;-75
2023/03/11 05:01:12;;;;;;;0.40;0.40;;;;;;;;;;5011435;28;20026;-75
2023/03/11 05:03:39;;;;;;;0.40;0.40;;;;;;;;;;5011246;28;20022;-76
2023/03/11 05:06:05;;;;;;;0.50;0.50;;;;;;;;;;5011499;28;20030;-76
2023/03/11 05:08:31;;;;;;;0.40;0.40;;;;;;;;;;5011542;28;20020;-76
2023/03/11 05:10:57;;;;;;;0.40;0.40;;;;;;;;;;5010578;28;20061;-78
2023/03/11 05:13:23;;;;;;;0.40;0.40;;;;;;;;;;5011611;28;20060;-76
2023/03/11 05:15:49;;;;;;;0.40;0.40;;;;;;;;;;5011203;28;20030;-76
2023/03/11 05:18:15;;;;;;;1.25;1.25;;;;;;;;;;5011554;28;20101;-76
2023/03/11 05:20:41;;;;;;;0.40;0.40;;;;;;;;;;5011418;28;20018;-76
2023/03/11 05:23:07;;;;;;;0.43;0.43;;;;;;;;;;5011388;28;20026;-77
2023/03/11 05:25:34;;;;;;;0.50;0.50;;;;;;;;;;5010202;28;20066;-76
2023/03/11 05:28:00;;;;;;;0.50;0.50;;;;;;;;;;5010009;28;20049;-77
2023/03/11 05:30:26;;;;;;;0.47;0.47;;;;;;;;;;5011229;28;20449;-77
2023/03/11 05:32:52;;;;;;;0.73;0.73;;;;;;;;;;5011106;28;20026;-76
2023/03/11 05:35:19;;;;;;;0.40;0.40;;;;;;;;;;5011643;28;20075;-77
2023/03/11 05:37:48;;;;;;;0.60;0.60;;;;;;;;;;5011274;28;20030;-75
2023/03/11 05:40:14;;;;;;;0.40;0.40;;;;;;;;;;5010178;28;20065;-75
2023/03/11 05:42:40;;;;;;;0.40;0.40;;;;;;;;;;5007344;28;20033;-76
2023/03/11 05:45:07;;;;;;;0.50;0.50;;;;;;;;;;5010732;28;20037;-75
2023/03/11 05:47:33;;;;;;;0.40;0.40;;;;;;;;;;5011184;28;20132;-77
2023/03/11 05:49:59;;;;;;;0.40;0.40;;;;;;;;;;5011018;28;20022;-76
2023/03/11 05:52:25;;;;;;;0.40;0.40;;;;;;;;;;5009917;28;20045;-76
2023/03/11 05:54:52;;;;;;;0.40;0.40;;;;;;;;;;5010967;28;20026;-76
2023/03/11 05:57:18;;;;;;;0.40;0.40;;;;;;;;;;5007592;28;20480;-74
2023/03/11 05:59:44;;;;;;;0.40;0.40;;;;;;;;;;5004541;28;22120;-75
2023/03/11 06:02:11;;;;;;;0.50;0.50;;;;;;;;;;5010767;28;20034;-76
2023/03/11 06:04:37;;;;;;;27.30;16.90;;;;;;;;;;5008055;28;20077;-75
2023/03/11 06:07:03;;;;;;;0.50;0.50;;;;;;;;;;5012398;28;20022;-77
2023/03/11 06:09:30;;;;;;;2.88;1.80;;;;;;;;;;5011423;28;20053;-77
2023/03/11 06:11:56;;;;;;;0.40;0.40;;;;;;;;;;5014346;28;20029;-76
2023/03/11 06:14:22;;;;;;;0.50;0.50;;;;;;;;;;5014487;28;20014;-75
2023/03/11 06:16:48;;;;;;;0.40;0.40;;;;;;;;;;5001751;28;20030;-75
2023/03/11 06:19:14;;;;;;;0.50;0.50;;;;;;;;;;4994896;28;20027;-74
2023/03/11 06:21:41;;;;;;;0.40;0.40;;;;;;;;;;4994753;28;20558;-76
2023/03/11 06:24:07;;;;;;;0.40;0.40;;;;;;;;;;5010653;28;20391;-76
2023/03/11 06:26:33;;;;;;;0.40;0.40;;;;;;;;;;5002475;28;20029;-77
2023/03/11 06:29:00;;;;;;;0.40;0.40;;;;;;;;;;5015693;28;20129;-76
2023/03/11 06:31:27;;;;;;;0.40;0.40;;;;;;;;;;5019561;28;20062;-76
2023/03/11 06:33:54;;;;;;;0.93;0.93;;;;;;;;;;5007270;28;20026;-76
2023/03/11 06:36:21;;;;;;;0.40;0.40;;;;;;;;;;5014687;28;20030;-77
2023/03/11 06:38:48;;;;;;;0.40;0.40;;;;;;;;;;5013981;28;20057;-74
2023/03/11 06:41:15;;;;;;;0.40;0.40;;;;;;;;;;5011594;28;20105;-75
2023/03/11 06:43:41;;;;;;;0.40;0.40;;;;;;;;;;5013843;28;20029;-75
2023/03/11 06:46:18;;;;;;;0.60;0.60;;;;;;;;;;5011727;28;20125;-74
2023/03/11 06:48:50;;;;;;;0.40;0.40;;;;;;;;;;5012547;28;20117;-74
2023/03/11 06:51:17;;;;;;;0.50;0.50;;;;;;;;;;5013550;28;20552;-75
2023/03/11 06:53:43;;;;;;;0.40;0.40;;;;;;;;;;5012626;28;20044;-75
2023/03/11 06:56:13;;;;;;;0.43;0.43;;;;;;;;;;5013563;28;20501;-74
2023/03/11 06:58:40;;;;;;;0.40;0.40;;;;;;;;;;5013656;28;20585;-71
2023/03/11 07:01:08;;;;;;;0.38;0.38;;;;;;;;;;5013677;28;20030;-76
2023/03/11 07:03:34;;;;;;;0.40;0.40;;;;;;;;;;5013537;28;20026;-74
2023/03/11 07:06:00;;;;;;;0.50;0.50;;;;;;;;;;5013636;28;20041;-76
2023/03/11 07:08:27;;;;;;;0.40;0.40;;;;;;;;;;5013350;28;20533;-72
2023/03/11 07:11:06;;;;;;;0.43;0.43;;;;;;;;;;5012758;28;20384;-73
2023/03/11 07:13:33;;;;;;;0.40;0.40;;;;;;;;;;5013303;28;20426;-75
2023/03/11 07:16:04;;;;;;;2.35;2.25;;;;;;;;;;5013376;28;20022;-72
2023/03/11 07:18:30;;;;;;;0.40;0.40;;;;;;;;;;5011865;28;20080;-70
2023/03/11 07:20:56;;;;;;;0.40;0.40;;;;;;;;;;5011651;28;20056;-71
2023/03/11 07:23:22;;;;;;;0.30;0.30;;;;;;;;;;5013044;28;20022;-72
2023/03/11 07:25:50;;;;;;;0.40;0.40;;;;;;;;;;5013041;28;20037;-71
2023/03/11 07:28:16;;;;;;;0.40;0.40;;;;;;;;;;5012162;28;20118;-74
2023/03/11 07:30:45;;;;;;;0.32;0.32;;;;;;;;;;5013070;28;20025;-73
2023/03/11 07:33:11;;;;;;;0.40;0.40;;;;;;;;;;5013680;28;20033;-70
2023/03/11 07:35:37;;;;;;;0.40;0.40;;;;;;;;;;5011468;28;20076;-71
2023/03/11 07:38:03;;;;;;;0.30;0.30;;;;;;;;;;5012595;28;20029;-71
2023/03/11 07:40:29;;;;;;;0.40;0.40;;;;;;;;;;5008856;28;20038;-71
2023/03/11 07:42:56;;;;;;;0.38;0.38;;;;;;;;;;4998455;28;20508;-71
2023/03/11 07:45:23;;;;;;;0.40;0.40;;;;;;;;;;4999913;28;20072;-72
2023/03/11 07:47:49;;;;;;;0.35;0.35;;;;;;;;;;5012488;28;20026;-72
2023/03/11 07:50:16;;;;;;;0.30;0.30;;;;;;;;;;5012556;28;20018;-72
2023/03/11 07:52:43;;;;;;;0.30;0.30;;;;;;;;;;5011379;28;20109;-71
2023/03/11 07:55:09;;;;;;;0.30;0.30;;;;;;;;;;5010221;28;20030;-70
2023/03/11 07:57:36;;;;;;;0.40;0.40;;;;;;;;;;5011567;28;20561;-70
2023/03/11 08:00:02;;;;;;;0.40;0.40;;;;;;;;;;5011609;28;20049;-71
2023/03/11 08:02:28;;;;;;;0.40;0.40;;;;;;;;;;5009873;28;20033;-72
2023/03/11 08:04:56;;;;;;;0.22;0.22;;;;;;;;;;5011947;28;20037;-72
2023/03/11 08:07:22;;;;;;;0.40;0.40;;;;;;;;;;5012267;28;20105;-72
2023/03/11 08:09:48;;;;;;;0.30;0.30;;;;;;;;;;5012505;28;20049;-74
2023/03/11 08:12:14;;;;;;;0.30;0.30;;;;;;;;;;5011561;28;20109;-71
2023/03/11 08:14:42;;;;;;;0.30;0.30;;;;;;;;;;5009105;28;20491;-70
2023/03/11 08:17:08;;;;;;;1.30;1.30;;;;;;;;;;4998197;28;20151;-69
2023/03/11 08:19:35;;;;;;;0.30;0.30;;;;;;;;;;5007526;28;20045;-72
2023/03/11 08:22:04;;;;;;;0.30;0.30;;;;;;;;;;5006063;28;20489;-70
2023/03/11 08:24:30;;;;;;;0.40;0.40;;;;;;;;;;5011889;28;20620;-71
2023/03/11 08:26:56;;;;;;;0.30;0.30;;;;;;;;;;5011908;28;20034;-70
2023/03/11 08:29:23;;;;;;;0.30;0.30;;;;;;;;;;5011816;28;20026;-71
2023/03/11 08:31:49;;;;;;;0.35;0.35;;;;;;;;;;5006192;28;20040;-71
2023/03/11 08:34:15;;;;;;;0.28;0.28;;;;;;;;;;5008477;28;20022;-72
2023/03/11 08:36:41;;;;;;;0.20;0.20;;;;;;;;;;5011778;28;20390;-75
2023/03/11 08:39:08;;;;;;;0.20;0.20;;;;;;;;;;5003133;28;20441;-77
2023/03/11 08:41:34;;;;;;;0.30;0.30;;;;;;;;;;5006849;28;20671;-75
2023/03/11 08:44:00;;;;;;;0.30;0.30;;;;;;;;;;5003568;28;20484;-73
2023/03/11 08:46:33;;;;;;;0.22;0.22;;;;;;;;;;5010472;28;20181;-74
2023/03/11 08:49:00;;;;;;;0.30;0.30;;;;;;;;;;5010740;28;20022;-73
2023/03/11 08:51:26;;;;;;;0.28;0.28;;;;;;;;;;5002356;28;20030;-74
2023/03/11 08:53:52;;;;;;;0.30;0.30;;;;;;;;;;4991878;28;20030;-77
2023/03/11 08:56:18;;;;;;;0.30;0.30;;;;;;;;;;5004745;28;20025;-75
2023/03/11 08:58:45;;;;;;;0.75;0.75;;;;;;;;;;5011501;28;20479;-74
2023/03/11 09:01:12;;;;;;;0.20;0.20;;;;;;;;;;5009621;28;20028;-73
2023/03/11 09:03:38;;;;;;;0.30;0.30;;;;;;;;;;5010707;28;20042;-73
2023/03/11 09:06:05;;;;;;;0.20;0.20;;;;;;;;;;5003751;28;20041;-75
2023/03/11 09:08:32;;;;;;;0.28;0.28;;;;;;;;;;5010630;28;20021;-73
2023/03/11 09:10:58;;;;;;;0.30;0.30;;;;;;;;;;5008055;28;20034;-75
2023/03/11 09:13:24;;;;;;;0.20;0.20;;;;;;;;;;4998577;28;20031;-73
2023/03/11 09:15:51;;;;;;;0.30;0.30;;;;;;;;;;4998430;28;20430;-77
2023/03/11 09:18:17;;;;;;;0.20;0.20;;;;;;;;;;5011207;28;20049;-73
2023/03/11 09:20:44;;;;;;;0.20;0.20;;;;;;;;;;5010000;28;20026;-72
2023/03/11 09:23:10;;;;;;;0.30;0.30;;;;;;;;;;5003298;28;20105;-73
2023/03/11 09:25:36;;;;;;;0.40;0.40;;;;;;;;;;4991684;28;20038;-75
2023/03/11 09:28:03;;;;;;;0.20;0.20;;;;;;;;;;5000216;28;20049;-74
2023/03/11 09:30:29;;;;;;;0.22;0.22;;;;;;;;;;5005368;28;20108;-74
2023/03/11 09:32:55;;;;;;;0.20;0.20;;;;;;;;;;5004144;28;20033;-74
2023/03/11 09:35:21;;;;;;;0.30;0.30;;;;;;;;;;5007019;28;20023;-75
2023/03/11 09:37:47;;;;;;;0.20;0.20;;;;;;;;;;4993492;28;20022;-73
2023/03/11 09:40:17;;;;;;;0.20;0.20;;;;;;;;;;5003449;28;20033;-77
2023/03/11 09:42:50;;;;;;;0.30;0.30;;;;;;;;;;4994192;28;20022;-75
2023/03/11 09:45:18;;;;;;;0.20;0.20;;;;;;;;;;4995187;28;20042;-75
2023/03/11 09:47:54;;;;;;;0.30;0.30;;;;;;;;;;5003646;28;20026;-74
2023/03/11 09:50:20;;;;;;;0.30;0.30;;;;;;;;;;5011347;28;20018;-75
2023/03/11 09:53:07;;;;;;;0.20;0.20;;;;;;;;;;5026633;28;20081;-75
2023/03/11 09:55:33;;;;;;;0.20;0.20;;;;;;;;;;5014845;28;20022;-75
2023/03/11 09:58:01;;;;;;;0.30;0.30;;;;;;;;;;5015649;28;20061;-73
2023/03/11 10:00:27;;;;;;;0.20;0.20;;;;;;;;;;5013298;28;20021;-74
2023/03/11 10:02:54;;;;;;;0.30;0.30;;;;;;;;;;5008170;28;20064;-74
2023/03/11 10:05:26;;;;;;;0.30;0.30;;;;;;;;;;4993539;28;20066;-74
2023/03/11 10:08:11;;;;;;;0.30;0.30;;;;;;;;;;5006942;28;20029;-76
2023/03/11 10:10:43;;;;;;;0.20;0.20;;;;;;;;;;5014520;28;20034;-72
2023/03/11 10:13:13;;;;;;;0.20;0.20;;;;;;;;;;5014566;28;20101;-84
2023/03/11 10:15:47;;;;;;;0.20;0.20;;;;;;;;;;5011033;28;20034;-74
2023/03/11 10:18:31;;;;;;;0.30;0.30;;;;;;;;;;5012594;28;20025;-77
2023/03/11 10:21:04;;;;;;;2.05;1.95;;;;;;;;;;5013571;28;20048;-74
2023/03/11 10:23:48;;;;;;;0.20;0.20;;;;;;;;;;5015270;28;20036;-80
2023/03/11 10:26:17;;;;;;;0.30;0.30;;;;;;;;;;5013040;28;20076;-79
2023/03/11 10:28:50;;;;;;;0.20;0.20;;;;;;;;;;5013710;28;20118;-78
2023/03/11 10:31:35;;;;;;;0.30;0.30;;;;;;;;;;5013637;28;20104;-76
2023/03/11 10:34:02;;;;;;;0.20;0.20;;;;;;;;;;5014059;28;20033;-76
2023/03/11 10:36:50;;;;;;;0.20;0.20;;;;;;;;;;5013933;28;20048;-77
2023/03/11 10:39:16;;;;;;;0.20;0.20;;;;;;;;;;5013826;28;20049;-78
2023/03/11 10:42:02;;;;;;;0.20;0.20;;;;;;;;;;5013354;28;20108;-78
2023/03/11 10:44:31;;;;;;;0.30;0.30;;;;;;;;;;5014392;28;20033;-79
2023/03/11 10:46:57;;;;;;;0.30;0.30;;;;;;;;;;5013551;28;20507;-77
2023/03/11 10:49:23;;;;;;;0.20;0.20;;;;;;;;;;5013747;28;20022;-81
2023/03/11 10:51:51;;;;;;;0.20;0.20;;;;;;;;;;5014115;28;20383;-79
2023/03/11 10:54:31;;;;;;;0.25;0.25;;;;;;;;;;5012596;28;20028;-80
2023/03/11 10:56:59;;;;;;;0.30;0.30;;;;;;;;;;5014181;28;20032;-79
2023/03/11 10:59:45;;;;;;;0.20;0.20;;;;;;;;;;5011602;28;20030;-80
2023/03/11 11:02:24;;;;;;;0.28;0.28;;;;;;;;;;5011691;28;20077;-80
2023/03/11 11:05:02;;;;;;;0.20;0.20;;;;;;;;;;5016943;28;20029;-82
2023/03/11 11:07:30;;;;;;;0.20;0.20;;;;;;;;;;5015541;28;20022;-80
2023/03/11 11:10:26;;;;;;;0.20;0.20;;;;;;;;;;5013218;28;20030;-81
2023/03/11 11:12:52;;;;;;;0.25;0.25;;;;;;;;;;5008143;28;20136;-83
2023/03/11 11:15:23;;;;;;;0.22;0.22;;;;;;;;;;5012412;28;20030;-81
2023/03/11 11:17:49;;;;;;;0.20;0.20;;;;;;;;;;5010737;28;20032;-81
2023/03/11 11:20:17;;;;;;;0.30;0.30;;;;;;;;;;5013768;28;20382;-81
2023/03/11 11:22:55;;;;;;;0.20;0.20;;;;;;;;;;5013761;28;20041;-82
2023/03/11 11:25:27;;;;;;;0.20;0.20;;;;;;;;;;5012671;28;20040;-82
2023/03/11 11:27:55;;;;;;;0.20;0.20;;;;;;;;;;5014189;28;20100;-82
2023/03/11 11:30:21;;;;;;;0.20;0.20;;;;;;;;;;5015270;28;20053;-83
2023/03/11 11:32:47;;;;;;;0.20;0.20;;;;;;;;;;5012852;28;20057;-82
2023/03/11 11:35:18;;;;;;;0.20;0.20;;;;;;;;;;5017776;28;20032;-81
2023/03/11 11:38:10;;;;;;;0.20;0.20;;;;;;;;;;5018412;28;20041;-77
2023/03/11 11:40:36;;;;;;;;;;;;;;;;;;5014102;28;20038;-77
2023/03/11 11:43:12;;;;;;;0.20;0.20;;;;;;;;;;5013874;28;19911;-76
2023/03/11 11:45:45;;;;;;;0.20;0.20;;;;;;;;;;5014756;28;20435;-76
2023/03/11 11:48:20;;;;;;;0.30;0.30;;;;;;;;;;5013416;28;20046;-77
2023/03/11 11:50:55;;;;;;;0.20;0.20;;;;;;;;;;5012043;28;20026;-76
2023/03/11 11:53:27;;;;;;;0.30;0.30;;;;;;;;;;5012879;28;20018;-75
2023/03/11 11:55:54;;;;;;;0.30;0.30;;;;;;;;;;5013212;28;20030;-77
2023/03/11 11:58:23;;;;;;;0.22;0.22;;;;;;;;;;5012963;28;20494;-78
2023/03/11 12:01:09;;;;;;;0.20;0.20;;;;;;;;;;5013830;28;20017;-75
2023/03/11 12:04:00;;;;;;;0.20;0.20;;;;;;;;;;5008113;28;20057;-75
2023/03/11 12:06:26;;;;;;;0.20;0.20;;;;;;;;;;5006365;28;20038;-74
2023/03/11 12:09:04;;;;;;;0.20;0.20;;;;;;;;;;5010762;28;20022;-75
2023/03/11 12:11:38;;;;;;;0.20;0.20;;;;;;;;;;5012275;28;20037;-73
2023/03/11 12:14:20;;;;;;;0.20;0.20;;;;;;;;;;5012195;28;20478;-74
2023/03/11 12:17:00;;;;;;;0.20;0.20;;;;;;;;;;5012163;28;20529;-74
2023/03/11 12:19:42;;;;;;;0.20;0.20;;;;;;;;;;5012150;28;20040;-74
2023/03/11 12:22:08;;;;;;;;;;;;;;;;;;5012411;28;20510;-74
2023/03/11 12:24:37;;;;;;;0.20;0.20;;;;;;;;;;5009856;28;19936;-73
2023/03/11 12:27:07;;;;;;;0.20;0.20;;;;;;;;;;5011909;28;20042;-75
2023/03/11 12:29:36;;;;;;;0.20;0.20;;;;;;;;;;5012266;28;20112;-78
2023/03/11 12:32:02;;;;;;;0.20;0.20;;;;;;;;;;5011982;28;20105;-78
2023/03/11 12:34:29;;;;;;;0.30;0.30;;;;;;;;;;5011630;28;20040;-78
2023/03/11 12:36:57;;;;;;;0.22;0.22;;;;;;;;;;5011781;28;20028;-75
2023/03/11 12:39:23;;;;;;;0.20;0.20;;;;;;;;;;5011734;28;20416;-73
2023/03/11 12:42:09;;;;;;;0.20;0.20;;;;;;;;;;5009620;28;20038;-76
2023/03/11 12:44:36;;;;;;;0.20;0.20;;;;;;;;;;5011705;28;20495;-75
2023/03/11 12:47:08;;;;;;;0.20;0.20;;;;;;;;;;5011807;28;20038;-76
2023/03/11 12:49:34;;;;;;;;;;;;;;;;;;5012120;28;20106;-77
2023/03/11 12:52:04;;;;;;;0.20;0.20;;;;;;;;;;5011647;28;20000;-75
2023/03/11 12:54:31;;;;;;;0.20;0.20;;;;;;;;;;5011567;28;20149;-74
2023/03/11 12:56:58;;;;;;;0.20;0.20;;;;;;;;;;5010731;28;20029;-73
2023/03/11 12:59:37;;;;;;;0.95;0.95;;;;;;;;;;5011470;28;20395;-74
2023/03/11 13:02:09;;;;;;;0.20;0.20;;;;;;;;;;5011506;28;20055;-75
2023/03/11 13:04:35;;;;;;;0.20;0.20;;;;;;;;;;5011456;28;20030;-75
2023/03/11 13:07:02;;;;;;;0.20;0.20;;;;;;;;;;5011224;28;20092;-74
2023/03/11 13:09:28;;;;;;;0.20;0.20;;;;;;;;;;5011518;28;20104;-76
2023/03/11 13:11:54;;;;;;;0.20;0.20;;;;;;;;;;5011512;28;20030;-75
2023/03/11 13:14:20;;;;;;;0.20;0.20;;;;;;;;;;5010214;28;20093;-74
2023/03/11 13:16:46;;;;;;;0.20;0.20;;;;;;;;;;5012480;28;20073;-73
2023/03/11 13:19:31;;;;;;;0.20;0.20;;;;;;;;;;5015000;28;20414;-73
2023/03/11 13:21:58;;;;;;;0.20;0.20;;;;;;;;;;5015002;28;20081;-74
2023/03/11 13:24:24;;;;;;;0.20;0.20;;;;;;;;;;5015610;28;20030;-73
2023/03/11 13:26:51;;;;;;;3.22;1.17;;;;;;;;;;5015449;28;20034;-75
2023/03/11 13:29:21;;;;;;;4.43;1.08;;;;;;;;;;5015107;28;20099;-75
2023/03/11 13:31:50;;;;;;;3.88;0.95;;;;;;;;;;5014820;28;20040;-74
2023/03/11 13:34:16;;;;;;;5.20;1.38;;;;;;;;;;5015363;28;20030;-75
2023/03/11 13:36:52;;;;;;;5.13;0.85;;;;;;;;;;5015622;28;20041;-77
2023/03/11 13:39:27;;;;;;;4.88;1.33;;;;;;;;;;5014729;28;20029;-76
2023/03/11 13:41:53;;;;;;;5.65;1.05;;;;;;;;;;5014896;28;20053;-76
2023/03/11 13:44:20;;;;;;;3.78;1.02;;;;;;;;;;5007787;28;20026;-76
2023/03/11 13:46:52;;;;;;;4.68;0.93;;;;;;;;;;5009869;28;20049;-76
2023/03/11 13:49:21;;;;;;;3.42;0.95;;;;;;;;;;5014939;28;20061;-74
2023/03/11 13:51:48;;;;;;;2.63;0.70;;;;;;;;;;5015002;28;20037;-77
2023/03/11 13:54:16;;;;;;;2.78;0.90;;;;;;;;;;5014771;28;20029;-76
2023/03/11 13:56:54;;;;;;;2.92;0.80;;;;;;;;;;5014303;28;20018;-77
2023/03/11 13:59:28;;;;;;;4.15;0.85;;;;;;;;;;5013583;28;20052;-74
2023/03/11 14:01:59;;;;;;;5.57;0.70;;;;;;;;;;5014035;28;20567;-74
2023/03/11 14:04:33;;;;;;;2.33;1.48;;;;;;;;;;5013706;28;20560;-75
2023/03/11 14:06:59;;;;;;;3.90;1.10;;;;;;;;;;5012513;28;20038;-76
2023/03/11 14:09:27;;;;;;;2.67;1.02;;;;;;;;;;5013766;28;20092;-75
2023/03/11 14:11:55;;;;;;;5.57;1.20;;;;;;;;;;5013786;28;20025;-74
2023/03/11 14:14:35;;;;;;;3.30;1.15;;;;;;;;;;5014569;28;20550;-75
2023/03/11 14:17:02;;;;;;;6.32;1.05;;;;;;;;;;5013821;28;20026;-75
2023/03/11 14:19:29;;;;;;;9.68;1.35;;;;;;;;;;5014382;28;20030;-73
2023/03/11 14:21:55;;;;;;;7.00;1.10;;;;;;;;;;5013288;28;20049;-73
2023/03/11 14:24:30;;;;;;;7.22;0.90;;;;;;;;;;5010954;28;20609;-73
2023/03/11 14:26:57;;;;;;;3.50;1.13;;;;;;;;;;5013349;28;20033;-74
2023/03/11 14:29:32;;;;;;;2.15;0.90;;;;;;;;;;5010347;28;20026;-76
2023/03/11 14:31:58;;;;;;;3.80;1.10;;;;;;;;;;5002669;28;20022;-76
2023/03/11 14:34:26;;;;;;;6.25;0.98;;;;;;;;;;5012243;28;20033;-74
2023/03/11 14:36:56;;;;;;;4.80;0.98;;;;;;;;;;5010750;28;20030;-74
2023/03/11 14:39:25;;;;;;;3.33;0.98;;;;;;;;;;5005533;28;20101;-74
2023/03/11 14:41:54;;;;;;;4.75;0.93;;;;;;;;;;5013025;28;20461;-75
2023/03/11 14:44:21;;;;;;;4.82;0.93;;;;;;;;;;5040269;28;20050;-76
2023/03/11 14:46:49;;;;;;;4.82;1.23;;;;;;;;;;4999707;28;20042;-75
2023/03/11 14:49:20;;;;;;;3.35;1.17;;;;;;;;;;5014045;28;20018;-77
2023/03/11 14:51:57;;;;;;;4.07;1.90;;;;;;;;;;5010465;28;20128;-77